sensor_id;sensor_type;location;lat;lon;timestamp;pressure;altitude;pressure_sealevel;temperature;humidity
37852;BME280;23691;52.486;4.650;2024-01-15T00:01:26;100345.81;;;5.42;61.98
37852;BME280;23691;52.486;4.650;2024-01-15T00:03:54;100343.28;;;5.40;61.83
37852;BME280;23691;52.486;4.650;2024-01-15T00:06:23;100347.75;;;5.40;61.86
37852;BME280;23691;52.486;4.650;2024-01-15T00:08:48;100339.63;;;5.41;61.71
37852;BME280;23691;52.486;4.650;2024-01-15T00:11:14;100323.72;;;5.41;61.83
37852;BME280;23691;52.486;4.650;2024-01-15T00:13:39;100331.41;;;5.44;61.73
37852;BME280;23691;52.486;4.650;2024-01-15T00:16:05;100323.28;;;5.46;61.54
37852;BME280;23691;52.486;4.650;2024-01-15T00:18:30;100329.44;;;5.46;61.54
37852;BME280;23691;52.486;4.650;2024-01-15T00:20:56;100350.81;;;5.45;62.02
37852;BME280;23691;52.486;4.650;2024-01-15T00:23:22;100336.97;;;5.41;62.72
37852;BME280;23691;52.486;4.650;2024-01-15T00:25:48;100337.41;;;5.36;63.49
37852;BME280;23691;52.486;4.650;2024-01-15T00:28:13;100330.16;;;5.29;63.80
37852;BME280;23691;52.486;4.650;2024-01-15T00:30:41;100312.88;;;5.25;64.20
37852;BME280;23691;52.486;4.650;2024-01-15T00:33:10;100308.69;;;5.22;64.43
37852;BME280;23691;52.486;4.650;2024-01-15T00:35:40;100314.13;;;5.21;64.38
37852;BME280;23691;52.486;4.650;2024-01-15T00:38:06;100296.69;;;5.18;64.69
37852;BME280;23691;52.486;4.650;2024-01-15T00:40:36;100296.69;;;5.18;64.96
37852;BME280;23691;52.486;4.650;2024-01-15T00:43:03;100282.44;;;5.19;65.24
37852;BME280;23691;52.486;4.650;2024-01-15T00:45:29;100282.59;;;5.18;65.49
37852;BME280;23691;52.486;4.650;2024-01-15T00:47:55;100275.63;;;5.16;65.82
37852;BME280;23691;52.486;4.650;2024-01-15T00:50:23;100270.72;;;5.22;65.80
37852;BME280;23691;52.486;4.650;2024-01-15T00:52:49;100270.44;;;5.25;66.03
37852;BME280;23691;52.486;4.650;2024-01-15T00:55:17;100272.94;;;5.26;66.25
37852;BME280;23691;52.486;4.650;2024-01-15T00:57:42;100258.28;;;5.32;66.53
37852;BME280;23691;52.486;4.650;2024-01-15T01:00:12;100277.38;;;5.35;66.74
37852;BME280;23691;52.486;4.650;2024-01-15T01:02:37;100269.00;;;5.40;67.44
37852;BME280;23691;52.486;4.650;2024-01-15T01:05:03;100263.41;;;5.43;67.42
37852;BME280;23691;52.486;4.650;2024-01-15T01:07:29;100274.69;;;5.45;67.69
37852;BME280;23691;52.486;4.650;2024-01-15T01:09:55;100294.94;;;5.46;68.13
37852;BME280;23691;52.486;4.650;2024-01-15T01:12:21;100294.00;;;5.37;68.58
37852;BME280;23691;52.486;4.650;2024-01-15T01:14:46;100296.66;;;5.37;68.33
37852;BME280;23691;52.486;4.650;2024-01-15T01:17:11;100297.09;;;5.33;68.78
37852;BME280;23691;52.486;4.650;2024-01-15T01:19:40;100289.84;;;5.25;68.77
37852;BME280;23691;52.486;4.650;2024-01-15T01:22:05;100297.22;;;5.22;69.15
37852;BME280;23691;52.486;4.650;2024-01-15T01:24:31;100281.63;;;5.19;69.43
37852;BME280;23691;52.486;4.650;2024-01-15T01:26:56;100278.56;;;5.13;69.24
37852;BME280;23691;52.486;4.650;2024-01-15T01:29:22;100286.09;;;5.08;68.90
37852;BME280;23691;52.486;4.650;2024-01-15T01:31:48;100281.22;;;5.04;69.12
37852;BME280;23691;52.486;4.650;2024-01-15T01:34:15;100276.34;;;4.99;68.85
37852;BME280;23691;52.486;4.650;2024-01-15T01:36:41;100274.81;;;4.97;68.89
37852;BME280;23691;52.486;4.650;2024-01-15T01:39:09;100268.00;;;4.94;68.70
37852;BME280;23691;52.486;4.650;2024-01-15T01:41:35;100269.94;;;4.92;68.65
37852;BME280;23691;52.486;4.650;2024-01-15T01:44:00;100253.19;;;4.91;68.90
37852;BME280;23691;52.486;4.650;2024-01-15T01:46:27;100244.41;;;4.91;69.04
37852;BME280;23691;52.486;4.650;2024-01-15T01:48:54;100248.06;;;4.90;69.31
37852;BME280;23691;52.486;4.650;2024-01-15T01:51:22;100239.00;;;4.92;69.36
37852;BME280;23691;52.486;4.650;2024-01-15T01:53:53;100244.00;;;4.95;69.51
37852;BME280;23691;52.486;4.650;2024-01-15T01:56:19;100239.41;;;4.98;69.46
37852;BME280;23691;52.486;4.650;2024-01-15T01:58:45;100240.09;;;5.00;69.63
37852;BME280;23691;52.486;4.650;2024-01-15T02:01:17;100247.75;;;5.03;69.80
37852;BME280;23691;52.486;4.650;2024-01-15T02:03:43;100238.69;;;5.05;69.63
37852;BME280;23691;52.486;4.650;2024-01-15T02:06:11;100254.59;;;5.05;69.39
37852;BME280;23691;52.486;4.650;2024-01-15T02:08:37;100243.56;;;5.10;69.37
37852;BME280;23691;52.486;4.650;2024-01-15T02:11:06;100245.91;;;5.13;69.16
37852;BME280;23691;52.486;4.650;2024-01-15T02:13:32;100249.25;;;5.15;69.00
37852;BME280;23691;52.486;4.650;2024-01-15T02:15:57;100247.13;;;5.19;68.89
37852;BME280;23691;52.486;4.650;2024-01-15T02:18:23;100239.75;;;5.22;68.84
37852;BME280;23691;52.486;4.650;2024-01-15T02:20:48;100248.53;;;5.23;68.67
37852;BME280;23691;52.486;4.650;2024-01-15T02:23:14;100243.94;;;5.25;68.36
37852;BME280;23691;52.486;4.650;2024-01-15T02:25:43;100250.75;;;5.27;68.29
37852;BME280;23691;52.486;4.650;2024-01-15T02:28:18;100244.63;;;5.27;68.22
37852;BME280;23691;52.486;4.650;2024-01-15T02:30:45;100242.38;;;5.32;68.20
37852;BME280;23691;52.486;4.650;2024-01-15T02:33:11;100256.59;;;5.31;67.83
37852;BME280;23691;52.486;4.650;2024-01-15T02:35:37;100254.78;;;5.31;68.08
37852;BME280;23691;52.486;4.650;2024-01-15T02:38:03;100251.00;;;5.34;67.80
37852;BME280;23691;52.486;4.650;2024-01-15T02:40:29;100252.97;;;5.32;67.60
37852;BME280;23691;52.486;4.650;2024-01-15T02:43:04;100251.44;;;5.29;67.09
37852;BME280;23691;52.486;4.650;2024-01-15T02:45:29;100249.22;;;5.25;66.94
37852;BME280;23691;52.486;4.650;2024-01-15T02:47:55;100239.06;;;5.20;66.12
37852;BME280;23691;52.486;4.650;2024-01-15T02:50:21;100237.94;;;5.13;65.82
37852;BME280;23691;52.486;4.650;2024-01-15T02:52:46;100238.25;;;5.10;65.74
37852;BME280;23691;52.486;4.650;2024-01-15T02:55:12;100248.00;;;5.09;65.66
37852;BME280;23691;52.486;4.650;2024-01-15T02:57:40;100234.06;;;5.07;65.51
37852;BME280;23691;52.486;4.650;2024-01-15T03:00:05;100237.84;;;5.05;65.33
37852;BME280;23691;52.486;4.650;2024-01-15T03:02:44;100231.00;;;5.02;65.28
37852;BME280;23691;52.486;4.650;2024-01-15T03:05:30;100233.94;;;4.99;65.54
37852;BME280;23691;52.486;4.650;2024-01-15T03:07:55;100233.22;;;4.97;65.30
37852;BME280;23691;52.486;4.650;2024-01-15T03:10:20;100231.69;;;4.94;65.30
37852;BME280;23691;52.486;4.650;2024-01-15T03:12:46;100228.09;;;4.95;65.72
37852;BME280;23691;52.486;4.650;2024-01-15T03:15:11;100228.22;;;4.94;66.15
37852;BME280;23691;52.486;4.650;2024-01-15T03:17:37;100229.75;;;4.97;66.34
37852;BME280;23691;52.486;4.650;2024-01-15T03:20:02;100229.75;;;4.97;66.22
37852;BME280;23691;52.486;4.650;2024-01-15T03:22:31;100217.31;;;4.97;66.64
37852;BME280;23691;52.486;4.650;2024-01-15T03:24:56;100229.91;;;4.95;66.76
37852;BME280;23691;52.486;4.650;2024-01-15T03:27:21;100221.09;;;4.94;66.95
37852;BME280;23691;52.486;4.650;2024-01-15T03:29:47;100221.97;;;4.95;67.15
37852;BME280;23691;52.486;4.650;2024-01-15T03:32:12;100216.50;;;4.97;67.61
37852;BME280;23691;52.486;4.650;2024-01-15T03:34:38;100211.06;;;4.98;67.78
37852;BME280;23691;52.486;4.650;2024-01-15T03:37:03;100202.13;;;4.99;68.13
37852;BME280;23691;52.486;4.650;2024-01-15T03:39:29;100203.81;;;5.00;68.50
37852;BME280;23691;52.486;4.650;2024-01-15T03:41:54;100219.41;;;5.03;68.32
37852;BME280;23691;52.486;4.650;2024-01-15T03:44:20;100219.41;;;5.03;68.02
37852;BME280;23691;52.486;4.650;2024-01-15T03:46:45;100217.19;;;4.99;67.72
37852;BME280;23691;52.486;4.650;2024-01-15T03:49:11;100220.69;;;4.99;68.31
37852;BME280;23691;52.486;4.650;2024-01-15T03:51:41;100219.72;;;5.00;68.90
37852;BME280;23691;52.486;4.650;2024-01-15T03:54:06;100219.84;;;4.99;69.65
37852;BME280;23691;52.486;4.650;2024-01-15T03:56:32;100220.13;;;4.95;69.86
37852;BME280;23691;52.486;4.650;2024-01-15T03:58:57;100201.88;;;4.92;69.95
37852;BME280;23691;52.486;4.650;2024-01-15T04:01:23;100205.78;;;4.88;69.46
37852;BME280;23691;52.486;4.650;2024-01-15T04:03:48;100204.38;;;4.84;69.45
37852;BME280;23691;52.486;4.650;2024-01-15T04:06:13;100194.91;;;4.82;69.25
37852;BME280;23691;52.486;4.650;2024-01-15T04:08:39;100199.69;;;4.78;68.99
37852;BME280;23691;52.486;4.650;2024-01-15T04:11:04;100198.97;;;4.76;68.75
37852;BME280;23691;52.486;4.650;2024-01-15T04:13:32;100200.22;;;4.72;68.71
37852;BME280;23691;52.486;4.650;2024-01-15T04:15:58;100194.22;;;4.70;68.92
37852;BME280;23691;52.486;4.650;2024-01-15T04:18:23;100185.44;;;4.69;68.47
37852;BME280;23691;52.486;4.650;2024-01-15T04:20:48;100180.16;;;4.69;68.78
37852;BME280;23691;52.486;4.650;2024-01-15T04:23:14;100176.66;;;4.69;68.92
37852;BME280;23691;52.486;4.650;2024-01-15T04:25:39;100177.94;;;4.65;68.89
37852;BME280;23691;52.486;4.650;2024-01-15T04:28:08;100183.66;;;4.60;69.03
37852;BME280;23691;52.486;4.650;2024-01-15T04:30:34;100184.63;;;4.59;69.21
37852;BME280;23691;52.486;4.650;2024-01-15T04:32:59;100183.09;;;4.57;69.02
37852;BME280;23691;52.486;4.650;2024-01-15T04:35:24;100164.56;;;4.57;69.28
37852;BME280;23691;52.486;4.650;2024-01-15T04:37:50;100165.69;;;4.54;69.44
37852;BME280;23691;52.486;4.650;2024-01-15T04:40:15;100155.91;;;4.55;69.43
37852;BME280;23691;52.486;4.650;2024-01-15T04:42:41;100155.63;;;4.58;69.47
37852;BME280;23691;52.486;4.650;2024-01-15T04:45:06;100153.66;;;4.60;69.87
37852;BME280;23691;52.486;4.650;2024-01-15T04:47:32;100141.94;;;4.62;70.16
37852;BME280;23691;52.486;4.650;2024-01-15T04:49:57;100143.63;;;4.63;70.45
37852;BME280;23691;52.486;4.650;2024-01-15T04:52:22;100154.94;;;4.65;70.54
37852;BME280;23691;52.486;4.650;2024-01-15T04:54:48;100147.53;;;4.69;70.76
37852;BME280;23691;52.486;4.650;2024-01-15T04:57:17;100161.47;;;4.71;71.25
37852;BME280;23691;52.486;4.650;2024-01-15T04:59:45;100157.13;;;4.70;71.32
37852;BME280;23691;52.486;4.650;2024-01-15T05:02:11;100161.47;;;4.71;71.20
37852;BME280;23691;52.486;4.650;2024-01-15T05:04:36;100161.75;;;4.68;71.51
37852;BME280;23691;52.486;4.650;2024-01-15T05:07:01;100163.28;;;4.70;71.47
37852;BME280;23691;52.486;4.650;2024-01-15T05:09:27;100156.47;;;4.68;71.53
37852;BME280;23691;52.486;4.650;2024-01-15T05:11:54;100146.00;;;4.66;71.77
37852;BME280;23691;52.486;4.650;2024-01-15T05:14:19;100140.00;;;4.64;71.76
37852;BME280;23691;52.486;4.650;2024-01-15T05:16:48;100131.91;;;4.66;71.94
37852;BME280;23691;52.486;4.650;2024-01-15T05:19:14;100134.56;;;4.66;71.60
37852;BME280;23691;52.486;4.650;2024-01-15T05:21:39;100137.06;;;4.67;72.04
37852;BME280;23691;52.486;4.650;2024-01-15T05:24:05;100137.91;;;4.68;72.06
37852;BME280;23691;52.486;4.650;2024-01-15T05:26:34;100136.91;;;4.69;71.79
37852;BME280;23691;52.486;4.650;2024-01-15T05:28:59;100124.38;;;4.71;71.81
37852;BME280;23691;52.486;4.650;2024-01-15T05:31:25;100129.81;;;4.69;71.17
37852;BME280;23691;52.486;4.650;2024-01-15T05:33:50;100127.31;;;4.68;70.94
37852;BME280;23691;52.486;4.650;2024-01-15T05:36:15;100130.09;;;4.66;70.96
37852;BME280;23691;52.486;4.650;2024-01-15T05:38:41;100132.75;;;4.66;70.28
37852;BME280;23691;52.486;4.650;2024-01-15T05:41:06;100134.28;;;4.69;70.53
37852;BME280;23691;52.486;4.650;2024-01-15T05:43:32;100132.44;;;4.69;70.55
37852;BME280;23691;52.486;4.650;2024-01-15T05:45:57;100136.78;;;4.70;70.01
37852;BME280;23691;52.486;4.650;2024-01-15T05:48:23;100131.63;;;4.69;69.56
37852;BME280;23691;52.486;4.650;2024-01-15T05:50:48;100136.78;;;4.70;69.51
37852;BME280;23691;52.486;4.650;2024-01-15T05:53:14;100133.97;;;4.72;68.53
37852;BME280;23691;52.486;4.650;2024-01-15T05:55:39;100130.50;;;4.71;68.31
37852;BME280;23691;52.486;4.650;2024-01-15T05:58:05;100134.13;;;4.70;67.99
37852;BME280;23691;52.486;4.650;2024-01-15T06:00:30;100134.81;;;4.72;67.72
37852;BME280;23691;52.486;4.650;2024-01-15T06:02:58;100154.34;;;4.71;67.58
37852;BME280;23691;52.486;4.650;2024-01-15T06:05:24;100168.44;;;4.72;67.81
37852;BME280;23691;52.486;4.650;2024-01-15T06:07:50;100174.84;;;4.69;68.50
37852;BME280;23691;52.486;4.650;2024-01-15T06:10:15;100179.91;;;4.63;69.03
37852;BME280;23691;52.486;4.650;2024-01-15T06:12:43;100172.94;;;4.52;69.55
37852;BME280;23691;52.486;4.650;2024-01-15T06:15:08;100147.44;;;4.41;69.86
37852;BME280;23691;52.486;4.650;2024-01-15T06:17:34;100139.09;;;4.36;69.88
37852;BME280;23691;52.486;4.650;2024-01-15T06:19:59;100140.34;;;4.32;70.39
37852;BME280;23691;52.486;4.650;2024-01-15T06:22:24;100137.16;;;4.28;70.52
37852;BME280;23691;52.486;4.650;2024-01-15T06:24:50;100139.09;;;4.26;70.36
37852;BME280;23691;52.486;4.650;2024-01-15T06:27:15;100132.97;;;4.26;70.79
37852;BME280;23691;52.486;4.650;2024-01-15T06:29:45;100123.34;;;4.25;71.15
37852;BME280;23691;52.486;4.650;2024-01-15T06:32:14;100123.34;;;4.25;71.39
37852;BME280;23691;52.486;4.650;2024-01-15T06:34:39;100130.31;;;4.26;71.24
37852;BME280;23691;52.486;4.650;2024-01-15T06:37:04;100134.75;;;4.25;70.74
37852;BME280;23691;52.486;4.650;2024-01-15T06:39:33;100131.16;;;4.26;70.92
37852;BME280;23691;52.486;4.650;2024-01-15T06:42:02;100117.09;;;4.26;70.88
37852;BME280;23691;52.486;4.650;2024-01-15T06:44:27;100125.84;;;4.26;70.57
37852;BME280;23691;52.486;4.650;2024-01-15T06:46:53;100153.47;;;4.24;70.52
37852;BME280;23691;52.486;4.650;2024-01-15T06:49:22;100162.66;;;4.29;70.86
37852;BME280;23691;52.486;4.650;2024-01-15T06:51:48;100151.34;;;4.27;70.26
37852;BME280;23691;52.486;4.650;2024-01-15T06:54:13;100131.56;;;4.22;69.85
37852;BME280;23691;52.486;4.650;2024-01-15T06:56:39;100139.66;;;4.20;69.26
37852;BME280;23691;52.486;4.650;2024-01-15T06:59:04;100140.75;;;4.18;69.40
37852;BME280;23691;52.486;4.650;2024-01-15T07:01:29;100140.06;;;4.16;69.55
37852;BME280;23691;52.486;4.650;2024-01-15T07:03:55;100133.94;;;4.15;69.58
37852;BME280;23691;52.486;4.650;2024-01-15T07:06:20;100135.63;;;4.16;69.35
37852;BME280;23691;52.486;4.650;2024-01-15T07:08:46;100126.00;;;4.15;69.63
37852;BME280;23691;52.486;4.650;2024-01-15T07:11:11;100115.41;;;4.15;69.47
37852;BME280;23691;52.486;4.650;2024-01-15T07:13:37;100111.81;;;4.16;69.31
37852;BME280;23691;52.486;4.650;2024-01-15T07:16:03;100114.16;;;4.19;69.33
37852;BME280;23691;52.486;4.650;2024-01-15T07:18:28;100109.56;;;4.21;69.87
37852;BME280;23691;52.486;4.650;2024-01-15T07:20:53;100111.22;;;4.22;69.99
37852;BME280;23691;52.486;4.650;2024-01-15T07:23:19;100112.63;;;4.26;70.20
37852;BME280;23691;52.486;4.650;2024-01-15T07:25:45;100133.50;;;4.29;70.34
37852;BME280;23691;52.486;4.650;2024-01-15T07:28:10;100135.16;;;4.30;71.03
37852;BME280;23691;52.486;4.650;2024-01-15T07:30:35;100155.53;;;4.30;71.59
37852;BME280;23691;52.486;4.650;2024-01-15T07:33:04;100166.94;;;4.21;71.78
37852;BME280;23691;52.486;4.650;2024-01-15T07:35:29;100149.97;;;4.14;72.12
37852;BME280;23691;52.486;4.650;2024-01-15T07:37:55;100142.72;;;4.06;72.36
37852;BME280;23691;52.486;4.650;2024-01-15T07:40:20;100127.41;;;4.00;72.52
37852;BME280;23691;52.486;4.650;2024-01-15T07:42:46;100129.22;;;3.99;72.65
37852;BME280;23691;52.486;4.650;2024-01-15T07:45:12;100123.94;;;3.99;72.97
37852;BME280;23691;52.486;4.650;2024-01-15T07:47:41;100129.06;;;4.01;72.73
37852;BME280;23691;52.486;4.650;2024-01-15T07:50:06;100129.94;;;4.01;72.78
37852;BME280;23691;52.486;4.650;2024-01-15T07:52:31;100130.75;;;4.02;72.47
37852;BME280;23691;52.486;4.650;2024-01-15T07:54:57;100135.06;;;4.03;72.44
37852;BME280;23691;52.486;4.650;2024-01-15T07:57:25;100135.22;;;4.01;72.43
37852;BME280;23691;52.486;4.650;2024-01-15T07:59:50;100138.53;;;4.03;72.41
37852;BME280;23691;52.486;4.650;2024-01-15T08:02:16;100140.94;;;4.06;72.38
37852;BME280;23691;52.486;4.650;2024-01-15T08:04:45;100147.59;;;4.11;71.73
37852;BME280;23691;52.486;4.650;2024-01-15T08:07:11;100150.53;;;4.17;71.98
37852;BME280;23691;52.486;4.650;2024-01-15T08:09:36;100155.28;;;4.23;72.03
37852;BME280;23691;52.486;4.650;2024-01-15T08:12:02;100143.41;;;4.27;71.99
37852;BME280;23691;52.486;4.650;2024-01-15T08:14:27;100148.41;;;4.30;72.18
37852;BME280;23691;52.486;4.650;2024-01-15T08:16:52;100138.69;;;4.31;71.74
37852;BME280;23691;52.486;4.650;2024-01-15T08:19:20;100134.22;;;4.32;71.76
37852;BME280;23691;52.486;4.650;2024-01-15T08:21:46;100138.69;;;4.31;71.58
37852;BME280;23691;52.486;4.650;2024-01-15T08:24:14;100135.03;;;4.32;71.30
37852;BME280;23691;52.486;4.650;2024-01-15T08:26:43;100126.09;;;4.33;71.45
37852;BME280;23691;52.486;4.650;2024-01-15T08:29:19;100123.31;;;4.35;71.42
37852;BME280;23691;52.486;4.650;2024-01-15T08:31:46;100125.84;;;4.36;71.05
37852;BME280;23691;52.486;4.650;2024-01-15T08:34:11;100123.03;;;4.38;70.43
37852;BME280;23691;52.486;4.650;2024-01-15T08:36:37;100125.56;;;4.39;69.47
37852;BME280;23691;52.486;4.650;2024-01-15T08:39:02;100129.03;;;4.40;69.19
37852;BME280;23691;52.486;4.650;2024-01-15T08:41:31;100119.00;;;4.43;68.70
37852;BME280;23691;52.486;4.650;2024-01-15T08:43:56;100120.53;;;4.46;68.67
37852;BME280;23691;52.486;4.650;2024-01-15T08:46:22;100129.72;;;4.51;67.95
37852;BME280;23691;52.486;4.650;2024-01-15T08:48:47;100133.75;;;4.56;68.78
37852;BME280;23691;52.486;4.650;2024-01-15T08:51:12;100120.34;;;4.57;68.91
37852;BME280;23691;52.486;4.650;2024-01-15T08:53:38;100134.44;;;4.58;69.04
37852;BME280;23691;52.486;4.650;2024-01-15T08:56:04;100136.94;;;4.59;68.97
37852;BME280;23691;52.486;4.650;2024-01-15T08:58:31;100140.16;;;4.63;69.23
37852;BME280;23691;52.486;4.650;2024-01-15T09:00:56;100137.06;;;4.67;69.32
37852;BME280;23691;52.486;4.650;2024-01-15T09:03:21;100133.25;;;4.80;68.98
37852;BME280;23691;52.486;4.650;2024-01-15T09:05:47;100139.78;;;4.95;68.99
37852;BME280;23691;52.486;4.650;2024-01-15T09:08:14;100145.22;;;4.93;68.78
37852;BME280;23691;52.486;4.650;2024-01-15T09:10:39;100131.13;;;4.93;68.50
37852;BME280;23691;52.486;4.650;2024-01-15T09:13:05;100138.78;;;4.96;68.80
37852;BME280;23691;52.486;4.650;2024-01-15T09:15:31;100135.56;;;5.02;68.83
37852;BME280;23691;52.486;4.650;2024-01-15T09:17:57;100133.97;;;5.09;68.79
37852;BME280;23691;52.486;4.650;2024-01-15T09:20:33;100135.88;;;5.27;68.65
37852;BME280;23691;52.486;4.650;2024-01-15T09:22:58;100138.22;;;5.30;68.51
37852;BME280;23691;52.486;4.650;2024-01-15T09:25:26;100135.19;;;5.25;68.30
37852;BME280;23691;52.486;4.650;2024-01-15T09:27:52;100138.09;;;5.22;68.72
37852;BME280;23691;52.486;4.650;2024-01-15T09:30:18;100140.91;;;5.20;68.95
37852;BME280;23691;52.486;4.650;2024-01-15T09:32:43;100146.53;;;5.17;69.11
37852;BME280;23691;52.486;4.650;2024-01-15T09:35:09;100152.09;;;5.14;68.86
37852;BME280;23691;52.486;4.650;2024-01-15T09:37:34;100142.78;;;5.10;68.03
37852;BME280;23691;52.486;4.650;2024-01-15T09:39:59;100135.78;;;5.09;66.66
37852;BME280;23691;52.486;4.650;2024-01-15T09:42:25;100142.22;;;5.06;66.31
37852;BME280;23691;52.486;4.650;2024-01-15T09:44:55;100153.53;;;5.08;65.58
37852;BME280;23691;52.486;4.650;2024-01-15T09:47:20;100158.66;;;5.20;65.07
37852;BME280;23691;52.486;4.650;2024-01-15T09:49:50;100160.19;;;5.22;65.03
37852;BME280;23691;52.486;4.650;2024-01-15T09:52:15;100176.66;;;5.16;65.34
37852;BME280;23691;52.486;4.650;2024-01-15T09:54:43;100179.31;;;5.16;65.80
37852;BME280;23691;52.486;4.650;2024-01-15T09:57:11;100172.47;;;5.13;66.38
37852;BME280;23691;52.486;4.650;2024-01-15T09:59:38;100184.34;;;5.09;66.62
37852;BME280;23691;52.486;4.650;2024-01-15T10:02:06;100188.81;;;5.09;66.56
37852;BME280;23691;52.486;4.650;2024-01-15T10:04:32;100188.56;;;5.12;66.64
37852;BME280;23691;52.486;4.650;2024-01-15T10:07:00;100196.00;;;5.26;66.50
37852;BME280;23691;52.486;4.650;2024-01-15T10:09:25;100181.94;;;5.53;65.82
37852;BME280;23691;52.486;4.650;2024-01-15T10:11:51;100190.78;;;5.72;65.86
37852;BME280;23691;52.486;4.650;2024-01-15T10:14:16;100190.69;;;5.64;65.82
37852;BME280;23691;52.486;4.650;2024-01-15T10:16:42;100192.28;;;5.56;65.35
37852;BME280;23691;52.486;4.650;2024-01-15T10:19:11;100191.03;;;5.51;65.62
37852;BME280;23691;52.486;4.650;2024-01-15T10:21:39;100198.75;;;5.44;65.93
37852;BME280;23691;52.486;4.650;2024-01-15T10:24:07;100197.22;;;5.42;66.40
37852;BME280;23691;52.486;4.650;2024-01-15T10:26:33;100200.56;;;5.44;66.92
37852;BME280;23691;52.486;4.650;2024-01-15T10:28:59;100194.53;;;5.51;67.17
37852;BME280;23691;52.486;4.650;2024-01-15T10:31:25;100197.56;;;5.56;67.17
37852;BME280;23691;52.486;4.650;2024-01-15T10:33:51;100189.22;;;5.51;67.13
37852;BME280;23691;52.486;4.650;2024-01-15T10:36:17;100212.59;;;5.38;67.71
37852;BME280;23691;52.486;4.650;2024-01-15T10:38:46;100239.97;;;5.29;67.94
37852;BME280;23691;52.486;4.650;2024-01-15T10:41:17;100234.19;;;5.15;68.32
37852;BME280;23691;52.486;4.650;2024-01-15T10:43:43;100215.63;;;5.06;68.65
37852;BME280;23691;52.486;4.650;2024-01-15T10:46:10;100225.56;;;4.94;68.96
37852;BME280;23691;52.486;4.650;2024-01-15T10:48:36;100219.47;;;4.84;69.06
37852;BME280;23691;52.486;4.650;2024-01-15T10:51:02;100219.34;;;4.76;69.25
37852;BME280;23691;52.486;4.650;2024-01-15T10:53:38;100219.75;;;4.71;68.91
37852;BME280;23691;52.486;4.650;2024-01-15T10:56:05;100228.13;;;4.66;69.28
37852;BME280;23691;52.486;4.650;2024-01-15T10:58:33;100223.13;;;4.63;69.59
37852;BME280;23691;52.486;4.650;2024-01-15T11:00:59;100212.53;;;4.63;69.48
37852;BME280;23691;52.486;4.650;2024-01-15T11:03:24;100219.34;;;4.66;69.49
37852;BME280;23691;52.486;4.650;2024-01-15T11:05:50;100207.06;;;4.74;69.35
37852;BME280;23691;52.486;4.650;2024-01-15T11:08:17;100209.13;;;4.90;69.45
37852;BME280;23691;52.486;4.650;2024-01-15T11:10:47;100212.88;;;4.98;69.70
37852;BME280;23691;52.486;4.650;2024-01-15T11:13:21;100216.38;;;4.98;69.86
37852;BME280;23691;52.486;4.650;2024-01-15T11:15:57;100217.88;;;5.10;69.56
37852;BME280;23691;52.486;4.650;2024-01-15T11:18:23;100218.13;;;5.17;68.86
37852;BME280;23691;52.486;4.650;2024-01-15T11:23:46;100227.81;;;5.36;67.03
37852;BME280;23691;52.486;4.650;2024-01-15T11:26:35;100229.41;;;5.56;66.52
37852;BME280;23691;52.486;4.650;2024-01-15T11:29:05;100233.78;;;5.75;65.86
37852;BME280;23691;52.486;4.650;2024-01-15T11:34:10;100215.53;;;5.90;64.62
37852;BME280;23691;52.486;4.650;2024-01-15T11:41:58;100241.53;;;5.96;63.33
37852;BME280;23691;52.486;4.650;2024-01-15T11:44:23;100239.56;;;5.98;62.66
37852;BME280;23691;52.486;4.650;2024-01-15T11:47:00;100231.88;;;5.95;62.93
37852;BME280;23691;52.486;4.650;2024-01-15T11:49:59;100234.09;;;5.90;63.35
37852;BME280;23691;52.486;4.650;2024-01-15T11:52:37;100246.56;;;5.90;63.08
37852;BME280;23691;52.486;4.650;2024-01-15T11:55:22;100245.72;;;5.89;62.37
37852;BME280;23691;52.486;4.650;2024-01-15T11:57:53;100250.03;;;5.90;61.98
37852;BME280;23691;52.486;4.650;2024-01-15T12:00:20;100241.97;;;5.82;61.31
37852;BME280;23691;52.486;4.650;2024-01-15T12:02:48;100261.88;;;5.68;61.86
37852;BME280;23691;52.486;4.650;2024-01-15T12:05:17;100274.53;;;5.56;61.80
37852;BME280;23691;52.486;4.650;2024-01-15T12:07:48;100270.66;;;5.41;62.46
37852;BME280;23691;52.486;4.650;2024-01-15T12:10:18;100275.59;;;5.26;62.71
37852;BME280;23691;52.486;4.650;2024-01-15T12:13:00;100263.06;;;5.19;62.40
37852;BME280;23691;52.486;4.650;2024-01-15T12:15:34;100273.53;;;5.10;62.20
37852;BME280;23691;52.486;4.650;2024-01-15T12:18:01;100279.97;;;5.08;62.67
37852;BME280;23691;52.486;4.650;2024-01-15T12:20:30;100284.88;;;5.03;63.06
37852;BME280;23691;52.486;4.650;2024-01-15T12:22:56;100284.72;;;5.04;63.07
37852;BME280;23691;52.486;4.650;2024-01-15T12:25:22;100288.34;;;5.03;63.57
37852;BME280;23691;52.486;4.650;2024-01-15T12:27:48;100286.53;;;5.04;63.71
37852;BME280;23691;52.486;4.650;2024-01-15T12:30:21;100287.53;;;5.03;63.84
37852;BME280;23691;52.486;4.650;2024-01-15T12:32:46;100279.56;;;5.03;64.37
37852;BME280;23691;52.486;4.650;2024-01-15T12:35:13;100275.22;;;5.02;63.97
37852;BME280;23691;52.486;4.650;2024-01-15T12:37:40;100269.91;;;5.02;64.09
37852;BME280;23691;52.486;4.650;2024-01-15T12:40:06;100273.28;;;5.04;64.13
37852;BME280;23691;52.486;4.650;2024-01-15T12:42:33;100269.38;;;5.08;64.28
37852;BME280;23691;52.486;4.650;2024-01-15T12:45:00;100271.28;;;5.25;64.15
37852;BME280;23691;52.486;4.650;2024-01-15T12:47:25;100284.41;;;5.27;64.24
37852;BME280;23691;52.486;4.650;2024-01-15T12:49:54;100293.50;;;5.24;64.60
37852;BME280;23691;52.486;4.650;2024-01-15T12:52:20;100297.53;;;5.19;64.66
37852;BME280;23691;52.486;4.650;2024-01-15T12:54:48;100304.22;;;5.23;65.27
37852;BME280;23691;52.486;4.650;2024-01-15T12:57:25;100291.50;;;5.26;65.69
37852;BME280;23691;52.486;4.650;2024-01-15T12:59:50;100283.84;;;5.23;66.05
37852;BME280;23691;52.486;4.650;2024-01-15T13:02:16;100300.88;;;5.21;66.37
37852;BME280;23691;52.486;4.650;2024-01-15T13:04:42;100282.31;;;5.21;66.45
37852;BME280;23691;52.486;4.650;2024-01-15T13:07:08;100278.53;;;5.23;66.60
37852;BME280;23691;52.486;4.650;2024-01-15T13:09:34;100282.88;;;5.24;66.60